Latest Coastal Weather Observations for Pirlangimpi (Garden Point)

IDD60701

Issued at 12:41 am CST Saturday 20 December 2014 (issued every 10 minutes, with the page automatically refreshed every 10 minutes)

About coastal observations | Map of coastal stations | Coastal observations for NT | Marine services | Other Formats
Station Details ID: 014142 Name: PIRLANGIMPI AIRPORT Lat: -11.40 Lon: 130.42 Height: 18.3 m
Data from the previous 72 hours. | See also: Recent months at Pirlangimpi (Garden Point)
Date/Time
CST
Temp

°C
Wind Pressure Rain
since 9am
mm
Weather Cloud Vis
km
Sea
Height
m
Swell
Dir
 
Speed
knots
Gust
knots
hPa Trend Height
m
Period
s
Dir
20/12:30am 27.2 CALM 0 0 1010.2 - 0.2 - - - - - - -
20/12:00am 27.6 CALM 0 0 1010.6 - 0.2 - - - - - - -
 
Date/Time
CST
Temp

°C
Wind Pressure Rain
since 9am
mm
Weather Cloud Vis
km
Sea
Height
m
Swell
Dir
 
Speed
knots
Gust
knots
hPa Trend Height
m
Period
s
Dir
19/11:30pm 27.9 NE 1 2 1010.7 - 0.2 - - - - - - -
19/11:00pm 28.4 CALM 0 1 1010.6 - 0.2 - - - - - - -
19/10:30pm 28.4 NNW 1 4 1010.1 - 0.2 - - - - - - -
19/10:00pm 27.9 CALM 0 0 1009.9 - 0.2 - - - - - - -
19/09:30pm 27.5 CALM 0 0 1009.6 - 0.2 - - - - - - -
19/09:00pm 27.5 NE 1 2 1009.2 - 0.2 - - - - - - -
19/08:30pm 28.1 CALM 0 1 1009.0 - 0.2 - - - - - - -
19/08:00pm 28.6 CALM 0 1 1009.0 - 0.2 - - - - - - -
19/07:30pm 29.1 CALM 0 3 1008.5 - 0.2 - - - - - - -
19/07:00pm 29.9 W 2 4 1007.8 - 0.2 - - - - - - -
19/06:30pm 30.3 NW 3 6 1007.1 - 0.2 - - - - - - -
19/06:00pm 29.6 NW 1 4 1006.5 - 0.2 - - - - - - -
19/05:30pm 29.2 NNE 2 4 1006.4 - 0.2 - - - - - - -
19/05:00pm 30.1 NNE 3 5 1007.2 - 0.2 - - - - - - -
19/04:30pm 31.1 N 4 7 1007.0 - 0.2 - - - - - - -
19/04:00pm 34.5 NW 6 14 1007.0 - 0.2 - - - - - - -
19/03:30pm 34.0 NNW 7 14 1007.2 - 0.2 - - - - - - -
19/03:00pm 33.5 NW 7 13 1007.7 - 0.2 - - - - - - -
19/02:30pm 34.6 NNW 7 11 1008.3 - 0.2 - - - - - - -
19/02:00pm 34.0 NNW 5 10 1008.7 - 0.2 - - - - - - -
19/01:30pm 33.5 N 4 8 1009.0 - 0.2 - - - - - - -
19/01:00pm 33.7 NW 6 9 1009.1 - 0.2 - - - - - - -
19/12:30pm 34.0 W 2 3 1009.6 - 0.2 - - - - - - -
19/12:00pm 34.3 S 2 4 1009.9 - 0.2 - - - - - - -
19/11:30am 32.9 WNW 1 3 1010.2 - 0.2 - - - - - - -
19/11:00am 32.5 W 3 5 1010.5 - 0.2 - - - - - - -
19/10:30am 32.7 W 1 3 1010.7 - 0.2 - - - - - - -
19/10:00am 31.9 WNW 2 4 1010.7 - 0.2 - - - - - - -
19/09:30am 31.6 WNW 2 5 1010.7 - 0.0 - - - - - - -
19/09:00am 31.0 W 1 2 1010.8 - 9.4 - - - - - - -
19/08:30am 29.9 CALM 0 0 1010.6 - 9.4 - - - - - - -
19/08:00am 28.2 CALM 0 2 1010.3 - 9.4 - - - - - - -
19/07:30am 27.4 CALM 0 1 1010.3 - 9.4 - - - - - - -
19/07:00am 26.5 NE 2 3 1010.1 - 9.4 - - - - - - -
19/06:30am 26.0 NE 2 3 1009.6 - 9.4 - - - - - - -
19/06:00am 26.0 ENE 2 2 1009.1 - 9.4 - - - - - - -
19/05:30am 26.1 CALM 0 2 1008.8 - 9.4 - - - - - - -
19/05:00am 26.3 CALM 0 0 1008.6 - 9.4 - - - - - - -
19/04:30am 26.2 CALM 0 0 1008.5 - 9.4 - - - - - - -
19/04:00am 26.2 CALM 0 0 1008.6 - 9.4 - - - - - - -
19/03:30am 26.3 NE 1 1 1008.7 - 9.4 - - - - - - -
19/03:00am 26.3 CALM 0 0 1008.6 - 9.4 - - - - - - -
19/02:30am 26.3 CALM 0 0 1008.8 - 9.4 - - - - - - -
19/02:00am 26.3 CALM 0 0 1009.0 - 9.4 - - - - - - -
19/01:30am 26.4 CALM 0 0 1009.0 - 9.4 - - - - - - -
19/01:00am 26.4 CALM 0 0 1009.3 - 9.4 - - - - - - -
19/12:30am 26.5 CALM 0 0 1009.5 - 9.4 - - - - - - -
19/12:00am 26.6 ENE 1 2 1009.5 - 9.4 - - - - - - -
 
Date/Time
CST
Temp

°C
Wind Pressure Rain
since 9am
mm
Weather Cloud Vis
km
Sea
Height
m
Swell
Dir
 
Speed
knots
Gust
knots
hPa Trend Height
m
Period
s
Dir
18/11:30pm 26.7 CALM 0 0 1009.6 - 9.4 - - - - - - -
18/11:00pm 26.7 CALM 0 1 1009.4 - 9.4 - - - - - - -
18/10:30pm 26.6 CALM 0 0 1009.0 - 9.4 - - - - - - -
18/10:00pm 26.9 NE 1 3 1009.2 - 9.4 - - - - - - -
18/09:30pm 27.1 CALM 0 0 1009.0 - 9.4 - - - - - - -
18/09:00pm 27.1 CALM 0 2 1009.1 - 9.4 - - - - - - -
18/08:30pm 27.2 CALM 0 0 1008.9 - 9.4 - - - - - - -
18/08:00pm 27.4 CALM 0 0 1008.4 - 9.4 - - - - - - -
18/07:30pm 27.5 CALM 0 0 1007.9 - 9.4 - - - - - - -
18/07:00pm 27.9 CALM 0 0 1007.4 - 9.4 - - - - - - -
18/06:30pm 28.5 CALM 0 1 1007.2 - 9.4 - - - - - - -
18/06:00pm 28.6 NE 1 3 1007.1 - 9.4 - - - - - - -
18/05:30pm 28.3 CALM 0 2 1006.7 - 9.4 - - - - - - -
18/05:00pm 27.9 N 1 2 1006.7 - 9.4 - - - - - - -
18/04:30pm 27.7 NE 2 3 1007.0 - 9.4 - - - - - - -
18/04:00pm 27.9 NNW 2 5 1007.3 - 9.4 - - - - - - -
18/03:30pm 27.9 W 3 5 1007.9 - 9.4 - - - - - - -
18/03:00pm 27.8 WSW 5 9 1008.1 - 9.2 Recent precip. - - - - - -
18/02:30pm 28.8 SSW 6 11 1008.1 - 9.2 - - - - - - -
18/02:00pm 30.4 NW 2 8 1008.4 - 1.0 - - - - - - -
18/01:30pm 32.8 NW 5 9 1008.5 - 0.0 - - - - - - -
18/01:00pm 35.2 NNW 7 11 1008.6 - 0.0 - - - - - - -
18/12:30pm 34.1 NW 5 9 1009.3 - 0.0 - - - - - - -
18/12:00pm 32.9 NW 5 10 1009.5 - 0.0 - - - - - - -
18/11:30am 33.7 NW 4 9 1010.0 - 0.0 - - - - - - -
18/11:00am 31.5 NW 4 7 1010.2 - 0.0 - - - - - - -
18/10:30am 31.4 NNW 4 7 1010.1 - 0.0 - - - - - - -
18/10:00am 31.3 NNW 4 8 1010.0 - 0.0 - - - - - - -
18/09:30am 30.4 NW 3 6 1009.8 - 0.0 - - - - - - -
18/09:00am 30.6 WSW 1 3 1009.6 - 0.0 - - - - - - -
18/08:30am 30.8 CALM 0 2 1009.4 - 0.0 - - - - - - -
18/08:00am 28.6 CALM 0 1 1009.2 - 0.0 - - - - - - -
18/07:30am 27.6 NNE 1 2 1009.1 - 0.0 - - - - - - -
18/07:00am 26.8 CALM 0 0 1008.6 - 0.0 - - - - - - -
18/06:30am 26.6 CALM 0 0 1008.2 - 0.0 - - - - - - -
18/06:00am 26.6 CALM 0 0 1007.4 - 0.0 - - - - - - -
18/05:30am 26.8 CALM 0 0 1007.1 - 0.0 - - - - - - -
18/05:00am 26.8 CALM 0 1 1006.7 - 0.0 - - - - - - -
18/04:30am 26.9 CALM 0 0 1006.3 - 0.0 - - - - - - -
18/04:00am 26.9 NNW 1 2 1006.1 - 0.0 - - - - - - -
18/03:30am 26.9 NNE 2 3 1006.4 - 0.0 - - - - - - -
18/03:00am 27.1 NE 1 2 1006.4 - 0.0 - - - - - - -
18/02:30am 26.9 N 2 3 1006.2 - 0.0 - - - - - - -
18/02:00am 27.1 SW 1 1 1006.3 - 0.0 - - - - - - -
18/01:30am 27.4 CALM 0 0 1006.9 - 0.0 - - - - - - -
18/01:00am 27.6 CALM 0 0 1007.3 - 0.0 - - - - - - -
18/12:30am 27.9 SW 1 3 1007.7 - 0.0 - - - - - - -
18/12:00am 27.8 CALM 0 0 1008.0 - 0.0 - - - - - - -
 
Date/Time
CST
Temp

°C
Wind Pressure Rain
since 9am
mm
Weather Cloud Vis
km
Sea
Height
m
Swell
Dir
 
Speed
knots
Gust
knots
hPa Trend Height
m
Period
s
Dir
17/11:30pm 28.3 NW 1 2 1008.0 - 0.0 - - - - - - -
17/11:00pm 28.6 WSW 1 3 1008.3 - 0.0 - - - - - - -
17/10:30pm 28.4 W 1 2 1008.1 - 0.0 - - - - - - -
17/10:00pm 28.4 W 1 3 1008.5 - 0.0 - - - - - - -
17/09:30pm 28.6 W 1 2 1008.5 - 0.0 - - - - - - -
17/09:00pm 29.1 WSW 1 2 1008.4 - 0.0 - - - - - - -
17/08:30pm 29.4 WSW 1 2 1008.1 - 0.0 - - - - - - -
17/08:00pm 29.6 W 2 4 1007.6 - 0.0 - - - - - - -
17/07:30pm 29.9 WNW 2 3 1006.8 - 0.0 - - - - - - -
17/07:00pm 30.4 W 2 5 1006.5 - 0.0 - - - - - - -
17/06:30pm 30.7 NW 3 6 1005.9 - 0.0 - - - - - - -
17/06:00pm 31.1 NW 3 7 1005.1 - 0.0 - - - - - - -
17/05:30pm 31.3 NW 3 8 1005.1 - 0.0 - - - - - - -
17/05:00pm 31.8 NW 4 9 1005.4 - 0.0 - - - - - - -
17/04:30pm 31.9 NW 5 10 1005.2 - 0.0 - - - - - - -
17/04:00pm 33.0 NW 6 10 1004.7 - 0.0 - - - - - - -
17/03:30pm 34.2 NW 8 12 1005.1 - 0.0 - - - - - - -
17/03:00pm 34.4 NW 6 13 1005.4 - 0.0 - - - - - - -
17/02:30pm 34.2 NNW 6 11 1006.0 - 0.0 - - - - - - -
17/02:00pm 34.0 NW 5 10 1006.6 - 0.0 - - - - - - -
17/01:30pm 33.8 NW 5 9 1006.9 - 0.0 - - - - - - -
17/01:00pm 33.4 NW 5 10 1007.2 - 0.0 - - - - - - -
17/12:30pm 33.7 NNW 6 11 1007.5 - 0.0 - - - - - - -
17/12:00pm 33.2 NW 7 12 1007.6 - 0.0 - - - - - - -
17/11:30am 32.9 NW 5 9 1008.2 - 0.0 - - - - - - -
17/11:00am 32.0 NNW 5 8 1008.8 - 0.0 - - - - - - -
17/10:30am 32.3 NW 4 7 1008.7 - 0.0 - - - - - - -
17/10:00am 32.6 NW 4 7 1008.8 - 0.0 - - - - - - -
17/09:30am 32.1 NNW 4 8 1008.5 - 0.0 - - - - - - -
17/09:00am 31.7 NW 3 6 1008.2 - 0.2 - - - - - - -
17/08:30am 30.7 NW 2 4 1008.1 - 0.2 - - - - - - -
17/08:00am 29.4 CALM 0 1 1007.8 - 0.2 - - - - - - -
17/07:30am 28.6 CALM 0 0 1007.7 - 0.2 - - - - - - -
17/07:00am 28.2 CALM 0 2 1007.3 - 0.2 - - - - - - -
17/06:30am 28.2 CALM 0 1 1007.0 - 0.2 - - - - - - -
17/06:00am 28.3 NW 2 5 1006.5 - 0.2 - - - - - - -
17/05:30am 28.4 WNW 2 5 1006.5 - 0.2 - - - - - - -
17/05:00am 28.7 WNW 2 4 1006.2 - 0.2 - - - - - - -
17/04:30am 28.5 WNW 3 5 1005.9 - 0.2 - - - - - - -
17/04:00am 28.3 NW 2 4 1006.1 - 0.2 - - - - - - -
17/03:30am 28.1 NW 2 5 1005.9 - 0.2 - - - - - - -
17/03:00am 28.0 NW 2 4 1005.8 - 0.2 - - - - - - -
17/02:30am 27.6 CALM 0 0 1006.2 - 0.2 - - - - - - -
17/02:00am 28.0 WNW 1 2 1006.5 - 0.2 - - - - - - -
17/01:30am 28.1 CALM 0 2 1006.8 - 0.2 - - - - - - -
17/01:00am 28.2 CALM 0 0 1006.9 - 0.2 - - - - - - -

Other Formats:

Comma delimited format used in spreadsheet applications
http://www.bom.gov.au/fwo/IDD60701/IDD60701.94119.axf

JavaScript Object Notation format (JSON) in row-major order
http://www.bom.gov.au/fwo/IDD60701/IDD60701.94119.json